Westwood Lake, Colorado
Current Conditions -  °F | °C
As of 11:58 AM on Friday 21 Nov 2014 (Local Time) from KAFF Reporting Station
Clear Clear  
Wind Chill: 51°   Ceiling: Unl
Heat Index: 51°   Visibility: 10mi
Dew Point: 14°   Wind: 10mph
Humidity: 23%   Direction: 240°WSW
Pressure: 29.93"   Gusts: 16mph
Location:  39.0237°N, 105.099°W
Report Text: KAFF 211858Z AUTO 24009G14KT 10SM CLR 11/M10 A2993 RMK AO2 SLP129 T01071101
Loading
Personal Weather Stations






























Interactive Weather Map New forecast layout! Learn more

10-Day Weather Forecast

Advertisements
Track Severe Weather on mobile